createdAt,value
2017-09-29T00:02:00.271Z,7.90
2017-09-29T00:04:27.794Z,8.47
2017-09-29T00:06:55.339Z,9.80
2017-09-29T00:09:22.875Z,12.00
2017-09-29T00:11:50.418Z,9.83
2017-09-29T00:14:17.951Z,10.07
2017-09-29T00:16:45.494Z,10.07
2017-09-29T00:19:13.782Z,10.10
2017-09-29T00:21:41.322Z,9.00
2017-09-29T00:24:08.858Z,9.80
2017-09-29T00:26:36.406Z,12.80
2017-09-29T00:29:04.704Z,11.50
2017-09-29T00:31:32.251Z,9.93
2017-09-29T00:33:59.784Z,9.20
2017-09-29T00:36:27.332Z,8.03
2017-09-29T00:38:54.860Z,8.17
2017-09-29T00:41:22.404Z,8.43
2017-09-29T00:43:49.932Z,9.43
2017-09-29T00:46:17.477Z,10.33
2017-09-29T00:48:44.989Z,9.50
2017-09-29T00:51:12.532Z,9.03
2017-09-29T00:53:40.823Z,9.10
2017-09-29T00:56:08.362Z,7.53
2017-09-29T00:58:35.888Z,8.50
2017-09-29T01:01:03.437Z,7.90
2017-09-29T01:03:30.980Z,7.63
2017-09-29T01:05:58.515Z,10.30
2017-09-29T01:08:26.824Z,10.70
2017-09-29T01:10:54.356Z,12.03
2017-09-29T01:13:21.910Z,10.50
2017-09-29T01:15:49.444Z,10.70
2017-09-29T01:18:17.022Z,9.87
2017-09-29T01:20:44.547Z,10.80
2017-09-29T01:23:12.088Z,12.17
2017-09-29T01:25:39.623Z,10.30
2017-09-29T01:28:07.167Z,10.93
2017-09-29T01:30:34.696Z,12.23
2017-09-29T01:33:02.239Z,9.90
2017-09-29T01:35:29.763Z,10.93
2017-09-29T01:37:57.306Z,9.23
2017-09-29T01:40:24.826Z,9.60
2017-09-29T01:42:53.134Z,9.50
2017-09-29T01:45:21.586Z,9.77
2017-09-29T01:47:49.132Z,9.67
2017-09-29T01:50:16.654Z,8.50
2017-09-29T01:52:44.196Z,9.47
2017-09-29T01:55:11.723Z,9.00
2017-09-29T01:57:39.268Z,10.37
2017-09-29T02:00:06.807Z,10.67
2017-09-29T02:02:34.359Z,11.93
2017-09-29T02:05:01.892Z,10.50
2017-09-29T02:07:29.438Z,11.93
2017-09-29T02:09:56.968Z,10.13
2017-09-29T02:12:24.518Z,13.90
2017-09-29T02:14:52.048Z,13.70
2017-09-29T02:17:19.589Z,13.90
2017-09-29T02:19:47.903Z,14.53
2017-09-29T02:22:15.455Z,13.50
2017-09-29T02:24:43.752Z,12.53
2017-09-29T02:27:11.336Z,14.67
2017-09-29T02:29:38.850Z,18.60
2017-09-29T02:32:07.171Z,17.33
2017-09-29T02:34:34.704Z,14.70
2017-09-29T02:37:03.024Z,11.93
2017-09-29T02:39:31.325Z,12.70
2017-09-29T02:41:58.871Z,12.30
2017-09-29T02:44:26.403Z,13.83
2017-09-29T02:46:54.719Z,14.47
2017-09-29T02:49:22.244Z,15.60
2017-09-29T02:51:49.790Z,13.53
2017-09-29T02:54:17.326Z,12.73
2017-09-29T02:56:53.871Z,12.70
2017-09-29T02:59:22.927Z,13.60
2017-09-29T03:01:52.882Z,15.20
2017-09-29T03:04:23.843Z,20.33
2017-09-29T03:06:52.159Z,28.00
2017-09-29T03:09:19.695Z,26.60
2017-09-29T03:11:48.007Z,27.17
2017-09-29T03:14:15.532Z,28.40
2017-09-29T03:16:43.063Z,25.70
2017-09-29T03:19:10.605Z,29.87
2017-09-29T03:21:38.140Z,31.57
2017-09-29T03:24:06.454Z,31.43
2017-09-29T03:26:34.743Z,29.50
2017-09-29T03:29:03.051Z,34.10
2017-09-29T03:31:30.580Z,27.63
2017-09-29T03:33:58.131Z,23.10
2017-09-29T03:36:25.654Z,21.10
2017-09-29T03:38:53.193Z,20.97
2017-09-29T03:41:20.721Z,17.13
2017-09-29T03:43:48.267Z,16.20
2017-09-29T03:46:15.781Z,18.00
2017-09-29T03:48:43.332Z,17.63
2017-09-29T03:51:12.386Z,20.53
2017-09-29T03:53:42.138Z,17.07
2017-09-29T03:56:10.201Z,20.43
2017-09-29T03:58:38.759Z,20.87
2017-09-29T04:01:06.287Z,21.67
2017-09-29T04:03:33.835Z,24.07
2017-09-29T04:06:01.367Z,22.83
2017-09-29T04:08:28.919Z,21.00
2017-09-29T04:10:56.438Z,20.27
2017-09-29T04:13:23.986Z,20.13
2017-09-29T04:15:51.510Z,26.77
2017-09-29T04:18:19.072Z,21.50
2017-09-29T04:20:47.366Z,19.47
2017-09-29T04:23:14.912Z,19.90
2017-09-29T04:25:42.437Z,21.07
2017-09-29T04:28:09.979Z,20.70
2017-09-29T04:30:37.498Z,20.30
2017-09-29T04:33:05.041Z,21.23
2017-09-29T04:35:32.571Z,30.27
2017-09-29T04:38:00.115Z,29.83
2017-09-29T04:40:27.640Z,25.40
2017-09-29T04:42:55.186Z,22.27
2017-09-29T04:45:23.475Z,19.93
2017-09-29T04:47:51.035Z,20.37
2017-09-29T04:50:18.562Z,19.00
2017-09-29T04:52:46.102Z,19.10
2017-09-29T04:55:13.625Z,18.90
2017-09-29T04:57:41.172Z,23.60
2017-09-29T05:00:08.699Z,26.57
2017-09-29T05:02:36.250Z,20.43
2017-09-29T05:05:03.778Z,22.63
2017-09-29T05:07:31.322Z,18.07
2017-09-29T05:09:58.847Z,18.27
2017-09-29T05:12:27.158Z,26.83
2017-09-29T05:14:54.682Z,28.10
2017-09-29T05:17:22.990Z,24.57
2017-09-29T05:19:50.518Z,23.13
2017-09-29T05:22:18.847Z,20.50
2017-09-29T05:24:46.375Z,19.13
2017-09-29T05:27:13.905Z,18.90
2017-09-29T05:29:41.465Z,17.20
2017-09-29T05:32:08.994Z,17.17
2017-09-29T05:34:37.305Z,17.63
2017-09-29T05:37:04.883Z,25.50
2017-09-29T05:39:32.427Z,25.33
2017-09-29T05:41:59.951Z,24.37
2017-09-29T05:44:27.496Z,25.37
2017-09-29T05:46:55.170Z,23.33
2017-09-29T05:49:22.726Z,27.90
2017-09-29T05:51:50.251Z,26.17
2017-09-29T05:54:18.564Z,30.87
2017-09-29T05:56:46.098Z,30.50
2017-09-29T05:59:13.643Z,33.17
2017-09-29T06:01:41.175Z,33.90
2017-09-29T06:04:08.730Z,33.53
2017-09-29T06:06:36.260Z,35.30
2017-09-29T06:09:04.629Z,36.93
2017-09-29T06:11:32.931Z,36.30
2017-09-29T06:14:00.484Z,39.37
2017-09-29T06:16:28.011Z,36.37
2017-09-29T06:18:56.323Z,37.20
2017-09-29T06:21:23.854Z,35.37
2017-09-29T06:23:52.169Z,35.23
2017-09-29T06:26:19.690Z,34.33
2017-09-29T06:28:47.234Z,33.43
2017-09-29T06:31:14.762Z,35.93
2017-09-29T06:33:42.307Z,32.43
2017-09-29T06:36:09.830Z,34.60
2017-09-29T06:38:37.375Z,35.57
2017-09-29T06:41:04.903Z,35.20
2017-09-29T06:43:33.216Z,32.37
2017-09-29T06:46:00.747Z,29.53
2017-09-29T06:48:29.059Z,32.40
2017-09-29T06:50:56.596Z,32.57
2017-09-29T06:53:24.139Z,36.27
2017-09-29T06:55:51.662Z,36.27
2017-09-29T06:58:19.988Z,33.23
2017-09-29T07:00:48.286Z,30.80
2017-09-29T07:03:15.830Z,27.80
2017-09-29T07:05:43.356Z,27.40
2017-09-29T07:08:10.903Z,23.50
2017-09-29T07:10:38.423Z,27.83
2017-09-29T07:13:05.963Z,23.47
2017-09-29T07:15:33.495Z,24.87
2017-09-29T07:18:01.042Z,23.07
2017-09-29T07:20:28.575Z,22.67
2017-09-29T07:22:56.893Z,19.80
2017-09-29T07:25:25.879Z,23.33
2017-09-29T07:27:53.989Z,24.17
2017-09-29T07:30:21.888Z,22.40
2017-09-29T07:32:50.284Z,21.17
2017-09-29T07:35:17.835Z,21.77
2017-09-29T07:37:45.359Z,22.37
2017-09-29T07:40:12.906Z,29.93
2017-09-29T07:42:40.429Z,29.57
2017-09-29T07:45:07.975Z,28.67
2017-09-29T07:47:36.274Z,30.80
2017-09-29T07:50:03.819Z,30.83
2017-09-29T07:52:31.346Z,30.00
2017-09-29T07:54:59.734Z,32.30
2017-09-29T07:57:28.652Z,32.07
2017-09-29T07:59:56.717Z,32.47
2017-09-29T08:02:25.260Z,28.20
2017-09-29T08:04:56.339Z,28.50
2017-09-29T08:07:25.738Z,30.97
2017-09-29T08:09:54.504Z,27.40
2017-09-29T08:12:23.319Z,27.90
2017-09-29T08:14:51.500Z,27.47
2017-09-29T08:17:20.913Z,31.70
2017-09-29T08:19:49.203Z,30.40
2017-09-29T08:22:16.755Z,26.03
2017-09-29T08:24:44.283Z,22.40
2017-09-29T08:27:12.610Z,23.00
2017-09-29T08:29:40.139Z,23.07
2017-09-29T08:32:07.684Z,22.30
2017-09-29T08:34:35.214Z,21.30
2017-09-29T08:37:03.527Z,25.13
2017-09-29T08:39:31.051Z,28.07
2017-09-29T08:41:59.369Z,27.77
2017-09-29T08:44:26.900Z,27.60
2017-09-29T08:46:54.425Z,30.47
2017-09-29T08:49:21.969Z,32.93
2017-09-29T08:51:49.491Z,32.30
2017-09-29T08:54:17.805Z,29.63
2017-09-29T08:56:45.339Z,31.03
2017-09-29T08:59:13.656Z,31.33
2017-09-29T09:01:41.179Z,31.40
2017-09-29T09:04:08.743Z,33.53
2017-09-29T09:06:36.262Z,30.00
2017-09-29T09:09:04.572Z,31.57
2017-09-29T09:11:32.094Z,30.70
2017-09-29T09:14:00.398Z,30.57
2017-09-29T09:16:27.948Z,30.13
2017-09-29T09:18:55.470Z,28.10
2017-09-29T09:21:23.015Z,29.10
2017-09-29T09:23:50.543Z,29.37
2017-09-29T09:26:18.087Z,29.90
2017-09-29T09:28:46.387Z,27.07
2017-09-29T09:31:14.703Z,28.87
2017-09-29T09:33:42.235Z,28.70
2017-09-29T09:36:09.784Z,29.70
2017-09-29T09:38:37.315Z,29.10
2017-09-29T09:41:04.862Z,34.77
2017-09-29T09:43:32.388Z,34.30
2017-09-29T09:46:00.691Z,33.33
2017-09-29T09:48:28.224Z,34.77
2017-09-29T09:50:55.771Z,32.40
2017-09-29T09:53:23.304Z,33.87
2017-09-29T09:55:50.831Z,33.10
2017-09-29T09:58:18.379Z,31.70
2017-09-29T10:00:45.907Z,31.30
2017-09-29T10:03:13.454Z,29.70
2017-09-29T10:05:40.980Z,34.40
2017-09-29T10:08:08.523Z,30.40
2017-09-29T10:10:36.050Z,34.20
2017-09-29T10:13:04.359Z,34.27
2017-09-29T10:15:31.888Z,33.50
2017-09-29T10:17:59.436Z,34.67
2017-09-29T10:20:26.983Z,34.70
2017-09-29T10:22:54.526Z,33.30
2017-09-29T10:25:22.821Z,31.53
2017-09-29T10:27:51.131Z,30.47
2017-09-29T10:30:18.660Z,36.50
2017-09-29T10:32:46.984Z,34.67
2017-09-29T10:35:14.514Z,31.83
2017-09-29T10:37:42.041Z,31.30
2017-09-29T10:40:09.590Z,32.70
2017-09-29T10:42:37.114Z,30.87
2017-09-29T10:45:04.661Z,29.50
2017-09-29T10:47:32.960Z,28.70
2017-09-29T10:50:00.508Z,24.90
2017-09-29T10:52:28.803Z,30.67
2017-09-29T10:54:57.118Z,28.43
2017-09-29T10:57:24.651Z,27.47
2017-09-29T10:59:52.194Z,29.97
2017-09-29T11:02:19.714Z,30.33
2017-09-29T11:04:47.266Z,29.40
2017-09-29T11:07:14.804Z,29.63
2017-09-29T11:09:43.118Z,29.67
2017-09-29T11:12:11.425Z,30.70
2017-09-29T11:14:38.968Z,29.77
2017-09-29T11:17:06.496Z,29.80
2017-09-29T11:19:34.044Z,29.70
2017-09-29T11:22:01.572Z,26.93
2017-09-29T11:24:29.128Z,28.07
2017-09-29T11:26:56.663Z,32.73
2017-09-29T11:29:24.190Z,29.70
2017-09-29T11:31:51.738Z,32.30
2017-09-29T11:34:19.266Z,31.23
2017-09-29T11:36:46.814Z,31.03
2017-09-29T11:39:14.342Z,33.10
2017-09-29T11:41:41.887Z,31.83
2017-09-29T11:44:10.179Z,32.30
2017-09-29T11:46:38.485Z,30.47
2017-09-29T11:49:06.014Z,32.43
2017-09-29T11:51:33.550Z,34.90
2017-09-29T11:54:01.075Z,37.60
2017-09-29T11:56:28.623Z,35.97
2017-09-29T11:58:56.143Z,37.23
2017-09-29T12:01:23.691Z,33.50
2017-09-29T12:03:51.229Z,34.30
2017-09-29T12:06:19.524Z,35.33
2017-09-29T12:08:47.065Z,36.00
2017-09-29T12:11:14.588Z,36.27
2017-09-29T12:13:42.139Z,37.90
2017-09-29T12:16:09.669Z,35.60
2017-09-29T12:18:37.218Z,33.43
2017-09-29T12:21:04.751Z,36.37
2017-09-29T12:23:32.311Z,34.37
2017-09-29T12:26:00.608Z,35.30
2017-09-29T12:28:28.131Z,36.20
2017-09-29T12:30:55.691Z,36.57
2017-09-29T12:33:23.224Z,38.03
2017-09-29T12:35:51.541Z,37.53
2017-09-29T12:38:19.102Z,34.87
2017-09-29T12:40:47.424Z,37.00
2017-09-29T12:43:14.951Z,35.70
2017-09-29T12:45:42.504Z,39.13
2017-09-29T12:48:10.031Z,38.10
2017-09-29T12:50:37.579Z,40.77
2017-09-29T12:53:05.108Z,36.60
2017-09-29T12:55:32.651Z,36.57
2017-09-29T12:58:00.169Z,33.07
2017-09-29T13:00:28.487Z,36.17
2017-09-29T13:02:56.778Z,37.33
2017-09-29T13:05:25.081Z,36.60
2017-09-29T13:07:53.378Z,35.30
2017-09-29T13:10:20.905Z,36.77
2017-09-29T13:12:48.448Z,36.20
2017-09-29T13:15:15.978Z,36.27
2017-09-29T13:17:43.521Z,36.00
2017-09-29T13:20:11.807Z,34.30
2017-09-29T13:22:39.365Z,36.10
2017-09-29T13:25:06.890Z,34.50
2017-09-29T13:27:34.435Z,34.87
2017-09-29T13:30:01.959Z,33.17
2017-09-29T13:32:29.507Z,36.60
2017-09-29T13:34:57.036Z,34.67
2017-09-29T13:37:25.347Z,36.60
2017-09-29T13:39:52.877Z,35.47
2017-09-29T13:42:20.408Z,34.47
2017-09-29T13:44:47.945Z,33.70
2017-09-29T13:47:15.477Z,32.23
2017-09-29T13:49:43.013Z,33.70
2017-09-29T13:52:10.535Z,30.40
2017-09-29T13:54:38.843Z,29.57
2017-09-29T13:57:06.370Z,33.00
2017-09-29T13:59:34.680Z,32.33
2017-09-29T14:02:02.208Z,32.63
2017-09-29T14:04:29.756Z,32.67
2017-09-29T14:06:57.286Z,28.40
2017-09-29T14:09:24.810Z,29.30
2017-09-29T14:11:53.113Z,31.20
2017-09-29T14:14:20.634Z,34.50
2017-09-29T14:16:48.182Z,32.60
2017-09-29T14:19:15.701Z,32.50
2017-09-29T14:21:43.241Z,31.37
2017-09-29T14:24:10.768Z,33.57
2017-09-29T14:26:38.314Z,36.50
2017-09-29T14:29:05.842Z,33.60
2017-09-29T14:31:34.153Z,34.97
2017-09-29T14:34:01.678Z,33.97
2017-09-29T14:36:29.229Z,34.10
2017-09-29T14:38:56.757Z,36.97
2017-09-29T14:41:24.283Z,37.63
2017-09-29T14:43:51.827Z,35.37
2017-09-29T14:46:19.361Z,35.40
2017-09-29T14:48:47.671Z,34.87
2017-09-29T14:51:15.959Z,37.03
2017-09-29T14:53:44.270Z,38.77
2017-09-29T14:56:11.796Z,37.43
2017-09-29T14:58:39.345Z,37.10
2017-09-29T15:01:06.879Z,34.40
2017-09-29T15:03:34.422Z,36.90
2017-09-29T15:06:01.946Z,38.33
2017-09-29T15:08:30.239Z,37.70
2017-09-29T15:10:57.790Z,36.53
2017-09-29T15:13:25.318Z,39.87
2017-09-29T15:15:53.627Z,36.30
2017-09-29T15:18:21.158Z,33.23
2017-09-29T15:20:48.697Z,33.37
2017-09-29T15:23:16.225Z,37.53
2017-09-29T15:25:43.770Z,36.90
2017-09-29T15:28:11.290Z,36.10
2017-09-29T15:30:38.829Z,34.87
2017-09-29T15:33:06.360Z,34.73
2017-09-29T15:35:33.890Z,40.13
2017-09-29T15:38:01.431Z,39.17
2017-09-29T15:40:29.719Z,32.47
2017-09-29T15:42:57.259Z,35.80
2017-09-29T15:45:24.790Z,37.80
2017-09-29T15:47:53.095Z,36.23
2017-09-29T15:50:20.617Z,35.13
2017-09-29T15:52:48.158Z,35.10
2017-09-29T15:55:15.679Z,30.77
2017-09-29T15:57:43.235Z,36.00
2017-09-29T16:00:11.538Z,35.20
2017-09-29T16:02:39.078Z,34.20
2017-09-29T16:05:07.393Z,32.70
2017-09-29T16:07:34.918Z,31.27
2017-09-29T16:10:02.466Z,33.03
2017-09-29T16:12:29.998Z,26.00
2017-09-29T16:14:57.551Z,20.57
2017-09-29T16:17:25.073Z,28.20
2017-09-29T16:19:52.702Z,28.00
2017-09-29T16:22:20.223Z,27.57
2017-09-29T16:24:47.748Z,25.03
2017-09-29T16:27:16.055Z,22.23
2017-09-29T16:29:43.586Z,19.97
2017-09-29T16:32:11.126Z,19.57
2017-09-29T16:34:38.690Z,23.60
2017-09-29T16:37:06.225Z,18.23
2017-09-29T16:39:33.749Z,19.43
2017-09-29T16:42:01.289Z,29.47
2017-09-29T16:44:28.819Z,25.93
2017-09-29T16:46:56.369Z,20.63
2017-09-29T16:49:24.661Z,22.50
2017-09-29T16:51:52.182Z,26.50
2017-09-29T16:54:19.724Z,18.60
2017-09-29T16:56:47.250Z,18.07
2017-09-29T16:59:14.795Z,19.47
2017-09-29T17:01:42.318Z,22.00
2017-09-29T17:04:10.632Z,19.37
2017-09-29T17:06:38.167Z,15.67
2017-09-29T17:09:05.715Z,16.17
2017-09-29T17:11:33.239Z,16.20
2017-09-29T17:14:01.536Z,15.57
2017-09-29T17:16:29.087Z,16.17
2017-09-29T17:18:56.611Z,13.10
2017-09-29T17:21:24.924Z,11.87
2017-09-29T17:23:52.451Z,13.27
2017-09-29T17:26:19.994Z,12.40
2017-09-29T17:28:47.514Z,12.47
2017-09-29T17:31:15.823Z,10.93
2017-09-29T17:33:43.347Z,9.10
2017-09-29T17:36:10.891Z,11.00
2017-09-29T17:38:38.419Z,9.93
2017-09-29T17:41:05.971Z,11.33
2017-09-29T17:43:33.498Z,11.63
2017-09-29T17:46:01.791Z,11.43
2017-09-29T17:48:30.099Z,10.27
2017-09-29T17:50:57.628Z,10.70
2017-09-29T17:53:25.175Z,10.40
2017-09-29T17:55:53.466Z,19.20
2017-09-29T17:58:21.777Z,15.67
2017-09-29T18:00:49.306Z,12.73
2017-09-29T18:03:17.615Z,12.23
2017-09-29T18:05:45.899Z,9.13
2017-09-29T18:08:13.455Z,12.20
2017-09-29T18:10:41.746Z,13.97
2017-09-29T18:13:09.272Z,14.57
2017-09-29T18:15:36.813Z,15.23
2017-09-29T18:18:05.955Z,15.60
2017-09-29T18:20:33.503Z,16.60
2017-09-29T18:23:01.026Z,14.90
2017-09-29T18:25:28.570Z,14.37
2017-09-29T18:27:56.098Z,17.50
2017-09-29T18:30:23.654Z,17.97
2017-09-29T18:32:51.191Z,14.43
2017-09-29T18:35:18.750Z,15.47
2017-09-29T18:37:47.034Z,13.80
2017-09-29T18:40:17.070Z,16.47
2017-09-29T18:42:44.612Z,15.60
2017-09-29T18:45:16.095Z,16.27
2017-09-29T18:47:43.639Z,13.17
2017-09-29T18:50:11.927Z,18.33
2017-09-29T18:52:39.477Z,27.00
2017-09-29T18:55:06.998Z,15.90
2017-09-29T18:57:34.535Z,13.70
2017-09-29T19:00:02.084Z,13.43
2017-09-29T19:02:29.626Z,13.43
2017-09-29T19:04:57.153Z,19.73
2017-09-29T19:07:24.695Z,16.80
2017-09-29T19:09:52.291Z,15.87
2017-09-29T19:12:19.825Z,19.73
2017-09-29T19:14:47.370Z,15.40
2017-09-29T19:17:14.895Z,19.40
2017-09-29T19:19:42.439Z,18.50
2017-09-29T19:22:10.739Z,16.63
2017-09-29T19:24:38.283Z,16.10
2017-09-29T19:27:05.814Z,22.30
2017-09-29T19:29:33.364Z,24.60
2017-09-29T19:32:00.886Z,23.27
2017-09-29T19:34:28.434Z,21.07
2017-09-29T19:36:55.963Z,18.77
2017-09-29T19:39:24.279Z,18.50
2017-09-29T19:41:51.798Z,18.47
2017-09-29T19:44:19.341Z,18.10
2017-09-29T19:46:46.857Z,18.60
2017-09-29T19:49:15.175Z,27.90
2017-09-29T19:51:42.698Z,30.03
2017-09-29T19:54:10.228Z,29.93
2017-09-29T19:56:38.538Z,22.50
2017-09-29T19:59:06.066Z,17.57
2017-09-29T20:01:33.610Z,17.47
2017-09-29T20:04:01.135Z,14.10
2017-09-29T20:06:29.440Z,14.17
2017-09-29T20:08:56.970Z,15.00
2017-09-29T20:11:25.283Z,21.37
2017-09-29T20:13:52.812Z,30.97
2017-09-29T20:16:20.359Z,31.73
2017-09-29T20:18:47.884Z,28.00
2017-09-29T20:21:15.421Z,18.57
2017-09-29T20:23:42.948Z,18.00
2017-09-29T20:26:10.509Z,23.03
2017-09-29T20:28:38.804Z,24.37
2017-09-29T20:31:06.337Z,20.47
2017-09-29T20:33:34.682Z,18.47
2017-09-29T20:36:02.206Z,20.70
2017-09-29T20:38:29.750Z,20.43
2017-09-29T20:40:58.044Z,19.00
2017-09-29T20:43:25.595Z,21.70
2017-09-29T20:45:53.126Z,22.70
2017-09-29T20:48:20.675Z,26.30
2017-09-29T20:50:48.206Z,27.47
2017-09-29T20:53:15.754Z,23.20
2017-09-29T20:55:43.281Z,33.93
2017-09-29T20:58:11.586Z,26.63
2017-09-29T21:00:39.102Z,22.03
2017-09-29T21:03:06.650Z,19.60
2017-09-29T21:05:34.174Z,21.07
2017-09-29T21:08:02.472Z,17.43
2017-09-29T21:10:30.010Z,18.80
2017-09-29T21:12:57.536Z,16.53
2017-09-29T21:15:25.085Z,21.53
2017-09-29T21:17:52.615Z,24.63
2017-09-29T21:20:20.169Z,19.50
2017-09-29T21:22:47.694Z,16.03
2017-09-29T21:25:15.238Z,17.80
2017-09-29T21:27:42.764Z,14.60
2017-09-29T21:30:10.313Z,13.63
2017-09-29T21:32:37.838Z,16.67
2017-09-29T21:35:05.390Z,15.00
2017-09-29T21:37:33.681Z,13.83
2017-09-29T21:40:01.209Z,16.40
2017-09-29T21:42:28.749Z,17.47
2017-09-29T21:44:56.273Z,18.23
2017-09-29T21:47:23.820Z,18.87
2017-09-29T21:49:51.351Z,16.47
2017-09-29T21:52:18.897Z,18.07
2017-09-29T21:54:46.426Z,24.27
2017-09-29T21:57:13.962Z,26.63
2017-09-29T21:59:41.494Z,32.20
2017-09-29T22:02:09.038Z,28.73
2017-09-29T22:04:36.564Z,29.50
2017-09-29T22:07:04.131Z,28.87
2017-09-29T22:09:31.649Z,22.07
2017-09-29T22:11:59.173Z,19.13
2017-09-29T22:14:27.492Z,17.30
2017-09-29T22:16:55.019Z,15.10
2017-09-29T22:19:22.563Z,23.00
2017-09-29T22:21:50.098Z,19.17
2017-09-29T22:24:18.407Z,14.73
2017-09-29T22:26:45.936Z,16.33
2017-09-29T22:29:14.246Z,15.27
2017-09-29T22:31:42.351Z,14.90
2017-09-29T22:34:09.898Z,15.03
2017-09-29T22:36:37.427Z,14.43
2017-09-29T22:39:04.975Z,18.90
2017-09-29T22:41:32.500Z,21.37
2017-09-29T22:44:00.056Z,18.83
2017-09-29T22:46:27.584Z,18.57
2017-09-29T22:48:55.106Z,15.00
2017-09-29T22:51:23.421Z,13.37
2017-09-29T22:53:50.943Z,15.73
2017-09-29T22:56:18.494Z,13.77
2017-09-29T22:58:46.015Z,17.20
2017-09-29T23:01:14.330Z,24.00
2017-09-29T23:03:41.861Z,16.33
2017-09-29T23:06:10.166Z,14.87
2017-09-29T23:08:37.692Z,14.67
2017-09-29T23:11:06.008Z,15.50
2017-09-29T23:13:35.040Z,16.53
2017-09-29T23:16:02.602Z,17.13
2017-09-29T23:18:30.134Z,13.90
2017-09-29T23:20:58.448Z,17.67
2017-09-29T23:23:25.966Z,26.47
2017-09-29T23:25:53.517Z,25.77
2017-09-29T23:28:21.039Z,19.60
2017-09-29T23:30:48.563Z,17.17
2017-09-29T23:33:16.106Z,15.17
2017-09-29T23:35:44.393Z,15.90
2017-09-29T23:38:11.944Z,15.07
2017-09-29T23:40:40.239Z,23.77
2017-09-29T23:43:07.786Z,24.13
2017-09-29T23:45:35.312Z,31.40
2017-09-29T23:48:02.859Z,22.60
2017-09-29T23:50:30.388Z,18.67
2017-09-29T23:52:57.944Z,17.33
2017-09-29T23:55:25.472Z,14.47
2017-09-29T23:57:53.755Z,15.20
